createdAt,value
2022-09-14T00:02:02.922Z,81.29
2022-09-14T00:04:31.015Z,81.95
2022-09-14T00:06:59.363Z,81.42
2022-09-14T00:09:29.489Z,82.08
2022-09-14T00:11:57.606Z,81.70
2022-09-14T00:14:26.957Z,80.94
2022-09-14T00:16:55.043Z,81.08
2022-09-14T00:19:26.816Z,80.73
2022-09-14T00:21:56.655Z,82.78
2022-09-14T00:24:26.027Z,82.11
2022-09-14T00:26:54.638Z,81.69
2022-09-14T00:29:28.617Z,80.98
2022-09-14T00:31:56.805Z,80.61
2022-09-14T00:34:27.209Z,81.51
2022-09-14T00:36:55.958Z,81.18
2022-09-14T00:39:28.156Z,80.84
2022-09-14T00:41:56.333Z,81.61
2022-09-14T00:45:03.865Z,82.23
2022-09-14T00:47:33.476Z,82.80
2022-09-14T00:50:05.235Z,82.97
2022-09-14T00:52:35.926Z,83.04
2022-09-14T00:55:08.506Z,83.64
2022-09-14T00:57:44.147Z,82.67
2022-09-14T01:01:10.199Z,83.27
2022-09-14T01:04:03.953Z,82.78
2022-09-14T01:06:39.844Z,81.74
2022-09-14T01:09:19.933Z,80.91
2022-09-14T01:12:01.222Z,81.19
2022-09-14T01:14:41.030Z,81.58
2022-09-14T01:17:14.101Z,82.04
2022-09-14T01:20:11.069Z,82.21
2022-09-14T01:22:47.643Z,82.96
2022-09-14T01:25:30.472Z,83.44
2022-09-14T01:28:03.485Z,82.69
2022-09-14T01:30:34.096Z,83.11
2022-09-14T01:33:08.474Z,82.78
2022-09-14T01:35:41.945Z,83.42
2022-09-14T01:38:17.631Z,83.56
2022-09-14T01:40:48.367Z,84.45
2022-09-14T01:43:26.434Z,84.63
2022-09-14T01:45:58.820Z,85.53
2022-09-14T01:48:34.345Z,86.43
2022-09-14T01:51:05.559Z,87.02
2022-09-14T01:53:38.105Z,86.05
2022-09-14T01:56:12.149Z,84.94
2022-09-14T01:58:46.492Z,84.61
2022-09-14T02:01:21.458Z,85.13
2022-09-14T02:03:55.703Z,84.64
2022-09-14T02:06:28.777Z,85.68
2022-09-14T02:08:58.016Z,85.19
2022-09-14T02:11:26.159Z,85.08
2022-09-14T02:13:55.926Z,84.40
2022-09-14T02:16:26.174Z,83.98
2022-09-14T02:18:54.551Z,85.01
2022-09-14T02:21:25.591Z,86.58
2022-09-14T02:23:54.118Z,86.67
2022-09-14T02:26:23.991Z,85.80
2022-09-14T02:28:56.057Z,85.84
2022-09-14T02:31:41.989Z,85.65
2022-09-14T02:34:15.443Z,85.39
2022-09-14T02:36:49.526Z,85.02
2022-09-14T02:39:26.600Z,85.47
2022-09-14T02:42:18.453Z,86.68
2022-09-14T02:44:58.913Z,86.72
2022-09-14T02:47:34.151Z,85.67
2022-09-14T02:50:13.527Z,85.93
2022-09-14T02:52:49.748Z,84.87
2022-09-14T02:55:21.270Z,85.76
2022-09-14T02:58:02.785Z,84.99
2022-09-14T03:00:36.840Z,85.22
2022-09-14T03:03:10.345Z,85.45
2022-09-14T03:05:38.649Z,85.14
2022-09-14T03:08:07.857Z,84.70
2022-09-14T03:10:44.042Z,83.62
2022-09-14T03:13:19.492Z,82.37
2022-09-14T03:15:51.787Z,83.44
2022-09-14T03:18:21.685Z,84.37
2022-09-14T03:20:49.730Z,83.89
2022-09-14T03:23:19.781Z,83.43
2022-09-14T03:25:47.816Z,83.81
2022-09-14T03:28:16.928Z,85.83
2022-09-14T03:30:45.967Z,86.70
2022-09-14T03:33:24.381Z,86.29
2022-09-14T03:35:54.430Z,85.79
2022-09-14T03:38:24.349Z,85.20
2022-09-14T03:40:53.158Z,84.92
2022-09-14T03:43:22.183Z,84.13
2022-09-14T03:45:51.287Z,83.40
2022-09-14T03:48:20.394Z,84.06
2022-09-14T03:50:52.153Z,82.34
2022-09-14T03:53:20.362Z,82.76
2022-09-14T03:55:48.478Z,83.25
2022-09-14T03:58:16.794Z,82.49
2022-09-14T04:00:44.869Z,82.97
2022-09-14T04:03:13.226Z,82.42
2022-09-14T04:05:41.376Z,81.93
2022-09-14T04:08:10.870Z,81.66
2022-09-14T04:10:44.918Z,81.86
2022-09-14T04:13:13.125Z,81.87
2022-09-14T04:15:41.279Z,82.07
2022-09-14T04:18:10.509Z,81.93
2022-09-14T04:20:39.888Z,81.48
2022-09-14T04:23:07.997Z,81.39
2022-09-14T04:25:37.417Z,81.92
2022-09-14T04:28:21.843Z,81.99
2022-09-14T04:30:58.017Z,81.66
2022-09-14T04:33:27.167Z,81.67
2022-09-14T04:35:59.993Z,81.70
2022-09-14T04:38:28.013Z,81.01
2022-09-14T04:40:58.550Z,81.58
2022-09-14T04:43:27.707Z,82.18
2022-09-14T04:46:02.152Z,81.75
2022-09-14T04:48:33.713Z,81.70
2022-09-14T04:51:03.525Z,81.85
2022-09-14T04:53:31.631Z,81.10
2022-09-14T04:56:05.938Z,81.47
2022-09-14T04:58:34.567Z,81.39
2022-09-14T05:01:03.075Z,81.14
2022-09-14T05:03:31.320Z,81.39
2022-09-14T05:06:03.141Z,81.80
2022-09-14T05:08:31.212Z,81.16
2022-09-14T05:10:59.939Z,81.12
2022-09-14T05:13:29.574Z,79.85
2022-09-14T05:16:06.670Z,79.86
2022-09-14T05:18:35.177Z,81.07
2022-09-14T05:21:08.557Z,80.34
2022-09-14T05:23:37.562Z,79.41
2022-09-14T05:26:06.987Z,80.28
2022-09-14T05:28:37.460Z,80.47
2022-09-14T05:31:06.995Z,81.26
2022-09-14T05:33:35.240Z,80.47
2022-09-14T05:36:04.884Z,80.23
2022-09-14T05:38:36.052Z,80.50
2022-09-14T05:41:04.723Z,81.31
2022-09-14T05:43:33.491Z,81.12
2022-09-14T05:46:09.192Z,79.82
2022-09-14T05:48:37.783Z,80.00
2022-09-14T05:51:08.854Z,79.42
2022-09-14T05:53:37.323Z,80.13
2022-09-14T05:56:08.486Z,78.55
2022-09-14T05:58:37.533Z,79.19
2022-09-14T06:01:11.750Z,79.14
2022-09-14T06:03:40.207Z,78.75
2022-09-14T06:06:09.746Z,78.82
2022-09-14T06:08:39.537Z,78.21
2022-09-14T06:11:09.162Z,77.68
2022-09-14T06:13:37.993Z,78.28
2022-09-14T06:16:07.347Z,77.75
2022-09-14T06:18:38.445Z,77.26
2022-09-14T06:21:07.230Z,77.83
2022-09-14T06:23:35.521Z,77.97
2022-09-14T06:26:06.515Z,76.85
2022-09-14T06:28:35.426Z,76.99
2022-09-14T06:31:04.624Z,77.71
2022-09-14T06:33:33.063Z,77.47
2022-09-14T06:36:05.075Z,77.79
2022-09-14T06:38:34.317Z,76.67
2022-09-14T06:41:04.712Z,77.35
2022-09-14T06:43:34.347Z,77.65
2022-09-14T06:46:04.705Z,76.40
2022-09-14T06:48:35.538Z,77.65
2022-09-14T06:51:17.654Z,79.37
2022-09-14T06:53:46.603Z,80.29
2022-09-14T06:56:15.213Z,79.87
2022-09-14T06:58:44.048Z,80.06
2022-09-14T07:01:16.480Z,80.83
2022-09-14T07:03:47.013Z,81.80
2022-09-14T07:06:18.024Z,82.57
2022-09-14T07:08:46.449Z,81.79
2022-09-14T07:11:19.314Z,82.48
2022-09-14T07:13:48.228Z,83.37
2022-09-14T07:16:17.163Z,83.06
2022-09-14T07:18:45.342Z,81.57
2022-09-14T07:21:15.417Z,81.94
2022-09-14T07:23:46.888Z,81.77
2022-09-14T07:26:16.578Z,81.83
2022-09-14T07:28:46.590Z,81.32
2022-09-14T07:31:24.033Z,80.73
2022-09-14T07:33:55.538Z,79.40
2022-09-14T07:36:25.333Z,79.72
2022-09-14T07:38:56.383Z,80.71
2022-09-14T07:41:26.911Z,80.55
2022-09-14T07:43:57.297Z,77.49
2022-09-14T07:46:25.530Z,80.46
2022-09-14T07:48:56.716Z,79.54
2022-09-14T07:51:25.699Z,80.30
2022-09-14T07:53:55.565Z,81.21
2022-09-14T07:56:25.844Z,80.36
2022-09-14T07:59:07.112Z,79.64
2022-09-14T08:01:46.932Z,80.40
2022-09-14T08:04:15.111Z,80.32
2022-09-14T08:06:43.205Z,80.93
2022-09-14T08:09:12.600Z,79.46
2022-09-14T08:11:44.624Z,80.60
2022-09-14T08:14:14.299Z,78.82
2022-09-14T08:16:42.595Z,79.14
2022-09-14T08:19:14.644Z,80.60
2022-09-14T08:21:46.580Z,79.39
2022-09-14T08:24:18.679Z,79.95
2022-09-14T08:26:47.539Z,77.48
2022-09-14T08:29:16.757Z,78.23
2022-09-14T08:31:46.199Z,78.33
2022-09-14T08:34:16.126Z,78.75
2022-09-14T08:36:45.232Z,79.76
2022-09-14T08:39:15.078Z,77.15
2022-09-14T08:41:52.424Z,75.74
2022-09-14T08:44:25.029Z,78.03
2022-09-14T08:46:57.233Z,76.15
2022-09-14T08:49:37.953Z,78.90
2022-09-14T08:52:11.580Z,77.40
2022-09-14T08:54:39.926Z,76.94
2022-09-14T08:57:16.348Z,76.69
2022-09-14T08:59:53.400Z,76.27
2022-09-14T09:02:50.048Z,76.42
2022-09-14T09:05:33.995Z,77.33
2022-09-14T09:08:18.824Z,77.15
2022-09-14T09:10:48.915Z,74.45
2022-09-14T09:13:22.611Z,74.41
2022-09-14T09:15:52.774Z,74.35
2022-09-14T09:18:28.315Z,73.80
2022-09-14T09:21:01.886Z,72.94
2022-09-14T09:23:33.271Z,72.30
2022-09-14T09:26:09.398Z,72.40
2022-09-14T09:28:46.488Z,73.04
2022-09-14T09:31:15.661Z,75.05
2022-09-14T09:34:04.147Z,70.96
2022-09-14T09:36:36.375Z,71.00
2022-09-14T09:39:05.889Z,70.42
2022-09-14T09:41:44.382Z,70.79
2022-09-14T09:44:15.326Z,70.30
2022-09-14T09:46:48.919Z,71.89
2022-09-14T09:49:22.106Z,71.76
2022-09-14T09:51:51.107Z,70.89
2022-09-14T09:54:29.878Z,68.83
2022-09-14T09:57:00.257Z,69.40
2022-09-14T09:59:35.917Z,68.08
2022-09-14T10:02:27.566Z,69.63
2022-09-14T10:05:02.111Z,67.53
2022-09-14T10:07:32.132Z,67.01
2022-09-14T10:10:07.106Z,67.24
2022-09-14T10:12:35.992Z,66.96
2022-09-14T10:15:19.823Z,67.15
2022-09-14T10:18:17.277Z,70.91
2022-09-14T10:21:05.610Z,70.22
2022-09-14T10:23:36.321Z,68.49
2022-09-14T10:26:27.193Z,67.80
2022-09-14T10:28:55.497Z,68.46
2022-09-14T10:31:34.311Z,67.40
2022-09-14T10:34:02.374Z,68.41
2022-09-14T10:36:31.863Z,67.82
2022-09-14T10:39:09.157Z,67.58
2022-09-14T10:41:57.835Z,67.21
2022-09-14T10:44:45.179Z,68.46
2022-09-14T10:47:39.525Z,67.47
2022-09-14T10:50:24.588Z,69.63
2022-09-14T10:53:02.827Z,67.18
2022-09-14T10:55:42.381Z,67.60
2022-09-14T10:58:25.566Z,69.42
2022-09-14T11:01:08.578Z,67.59
2022-09-14T11:03:59.281Z,68.73
2022-09-14T11:06:37.460Z,71.05
2022-09-14T11:09:12.110Z,67.66
2022-09-14T11:11:50.032Z,70.67
2022-09-14T11:14:32.113Z,69.40
2022-09-14T11:17:19.545Z,69.20
2022-09-14T11:20:00.004Z,70.51
2022-09-14T11:22:36.217Z,70.50
2022-09-14T11:25:12.501Z,69.57
2022-09-14T11:27:44.475Z,70.72
2022-09-14T11:30:16.949Z,69.60
2022-09-14T11:32:51.039Z,70.18
2022-09-14T11:35:24.258Z,70.64
2022-09-14T11:37:56.428Z,71.76
2022-09-14T11:40:30.469Z,70.03
2022-09-14T11:43:02.261Z,70.46
2022-09-14T11:45:33.383Z,71.33
2022-09-14T11:48:41.502Z,70.65
2022-09-14T11:51:10.633Z,71.65
2022-09-14T11:53:39.535Z,69.39
2022-09-14T11:56:15.080Z,70.65
2022-09-14T11:58:47.629Z,70.34
2022-09-14T12:01:35.751Z,68.40
2022-09-14T12:04:13.441Z,68.95
2022-09-14T12:06:51.857Z,67.87
2022-09-14T12:09:39.938Z,68.94
2022-09-14T12:12:43.206Z,67.34
2022-09-14T12:15:22.856Z,69.02
2022-09-14T12:17:51.983Z,67.82
2022-09-14T12:20:35.172Z,67.64
2022-09-14T12:23:25.906Z,67.24
2022-09-14T12:25:59.724Z,67.90
2022-09-14T12:28:31.660Z,66.80
2022-09-14T12:31:13.603Z,67.50
2022-09-14T12:34:07.085Z,65.93
2022-09-14T12:36:59.204Z,65.46
2022-09-14T12:39:30.558Z,65.96
2022-09-14T12:42:04.250Z,65.70
2022-09-14T12:44:37.849Z,64.79
2022-09-14T12:47:54.885Z,64.96
2022-09-14T12:50:23.381Z,64.31
2022-09-14T12:53:07.058Z,64.88
2022-09-14T12:55:47.290Z,63.88
2022-09-14T12:58:59.589Z,61.97
2022-09-14T13:01:38.832Z,63.66
2022-09-14T13:04:15.712Z,62.72
2022-09-14T13:06:47.090Z,63.00
2022-09-14T13:09:20.309Z,62.24
2022-09-14T13:11:55.470Z,61.79
2022-09-14T13:14:26.465Z,61.75
2022-09-14T13:16:57.133Z,60.34
2022-09-14T13:19:27.389Z,61.21
2022-09-14T13:21:57.701Z,61.03
2022-09-14T13:24:32.625Z,61.53
2022-09-14T13:27:03.817Z,60.49
2022-09-14T13:29:32.417Z,59.98
2022-09-14T13:32:04.044Z,59.77
2022-09-14T13:34:36.226Z,58.64
2022-09-14T13:37:06.228Z,58.37
2022-09-14T13:39:37.074Z,60.53
2022-09-14T13:42:07.819Z,59.05
2022-09-14T13:44:41.065Z,60.13
2022-09-14T13:47:10.752Z,58.22
2022-09-14T13:49:41.811Z,59.76
2022-09-14T13:52:56.916Z,61.13
2022-09-14T13:55:23.337Z,60.12
2022-09-14T13:58:14.543Z,59.68
2022-09-14T14:00:54.579Z,60.96
2022-09-14T14:03:29.815Z,60.72
2022-09-14T14:05:59.088Z,62.66
2022-09-14T14:08:31.302Z,62.87
2022-09-14T14:11:01.849Z,60.20
2022-09-14T14:13:35.361Z,59.59
2022-09-14T14:16:16.992Z,59.53
2022-09-14T14:18:52.299Z,60.99
2022-09-14T14:21:29.572Z,59.79
2022-09-14T14:24:20.486Z,61.19
2022-09-14T14:26:49.752Z,60.84
2022-09-14T14:29:20.722Z,61.42
2022-09-14T14:31:49.022Z,61.55
2022-09-14T14:34:22.405Z,61.38
2022-09-14T14:36:51.127Z,60.00
2022-09-14T14:39:20.652Z,61.79
2022-09-14T14:41:50.572Z,61.14
2022-09-14T14:44:23.036Z,62.65
2022-09-14T14:46:51.348Z,62.91
2022-09-14T14:49:23.784Z,64.53
2022-09-14T14:51:52.204Z,63.91
2022-09-14T14:54:20.601Z,64.46
2022-09-14T14:56:50.563Z,63.14
2022-09-14T14:59:29.523Z,62.20
2022-09-14T15:01:58.469Z,62.80
2022-09-14T15:04:27.409Z,63.96
2022-09-14T15:06:55.782Z,64.00
2022-09-14T15:09:26.363Z,62.68
2022-09-14T15:11:56.942Z,63.64
2022-09-14T15:14:27.854Z,64.11
2022-09-14T15:17:00.215Z,62.84
2022-09-14T15:19:29.044Z,63.54
2022-09-14T15:22:01.426Z,63.33
2022-09-14T15:24:30.815Z,65.82
2022-09-14T15:26:59.562Z,64.02
2022-09-14T15:29:29.688Z,64.45
2022-09-14T15:31:59.037Z,64.86
2022-09-14T15:34:27.216Z,64.26
2022-09-14T15:36:57.570Z,64.00
2022-09-14T15:39:27.527Z,65.56
2022-09-14T15:41:56.516Z,63.83
2022-09-14T15:44:28.248Z,63.84
2022-09-14T15:46:57.137Z,66.38
2022-09-14T15:49:26.626Z,64.84
2022-09-14T15:51:58.030Z,65.10
2022-09-14T15:54:31.995Z,64.90
2022-09-14T15:57:01.280Z,64.30
2022-09-14T15:59:30.907Z,64.74
2022-09-14T16:01:58.987Z,64.80
2022-09-14T16:04:27.675Z,65.86
2022-09-14T16:06:55.949Z,64.84
2022-09-14T16:09:24.154Z,65.28
2022-09-14T16:11:52.295Z,64.20
2022-09-14T16:14:20.382Z,65.02
2022-09-14T16:16:49.919Z,65.64
2022-09-14T16:19:18.034Z,66.66
2022-09-14T16:21:48.409Z,66.77
2022-09-14T16:24:24.555Z,66.93
2022-09-14T16:26:53.108Z,67.40
2022-09-14T16:29:24.358Z,67.14
2022-09-14T16:31:54.965Z,66.43
2022-09-14T16:34:24.988Z,66.90
2022-09-14T16:36:53.400Z,66.97
2022-09-14T16:39:23.705Z,66.59
2022-09-14T16:41:52.091Z,66.48
2022-09-14T16:44:22.005Z,66.38
2022-09-14T16:46:50.722Z,66.30
2022-09-14T16:49:25.017Z,66.63
2022-09-14T16:51:55.663Z,67.01
2022-09-14T16:54:25.710Z,67.37
2022-09-14T16:56:57.215Z,67.44
2022-09-14T16:59:25.697Z,67.85
2022-09-14T17:01:55.415Z,68.06
2022-09-14T17:04:25.901Z,67.94
2022-09-14T17:06:56.249Z,67.63
2022-09-14T17:09:26.437Z,67.10
2022-09-14T17:11:56.599Z,66.99
2022-09-14T17:14:27.003Z,66.68
2022-09-14T17:16:56.459Z,67.07
2022-09-14T17:19:26.321Z,66.69
2022-09-14T17:21:58.470Z,67.04
2022-09-14T17:24:27.124Z,72.74
2022-09-14T17:26:55.310Z,73.65
2022-09-14T17:29:24.760Z,75.83
2022-09-14T17:31:55.532Z,77.31
2022-09-14T17:34:25.542Z,77.87
2022-09-14T17:36:54.762Z,76.71
2022-09-14T17:39:22.970Z,76.33
2022-09-14T17:41:52.275Z,76.39
2022-09-14T17:44:21.988Z,76.66
2022-09-14T17:46:52.844Z,79.13
2022-09-14T17:49:23.226Z,78.95
2022-09-14T17:51:56.103Z,79.16
2022-09-14T17:54:24.555Z,78.38
2022-09-14T17:56:54.690Z,80.09
2022-09-14T17:59:26.190Z,80.53
2022-09-14T18:01:55.292Z,79.67
2022-09-14T18:04:23.469Z,80.52
2022-09-14T18:06:53.002Z,80.31
2022-09-14T18:09:24.476Z,80.58
2022-09-14T18:11:56.107Z,80.42
2022-09-14T18:14:24.846Z,80.34
2022-09-14T18:16:53.268Z,80.73
2022-09-14T18:19:21.613Z,81.45
2022-09-14T18:21:52.608Z,82.11
2022-09-14T18:24:23.032Z,82.83
2022-09-14T18:26:52.173Z,81.89
2022-09-14T18:29:23.601Z,81.79
2022-09-14T18:31:53.546Z,83.15
2022-09-14T18:34:23.771Z,82.81
2022-09-14T18:36:52.627Z,82.92
2022-09-14T18:39:23.339Z,82.33
2022-09-14T18:41:54.447Z,82.39
2022-09-14T18:44:23.701Z,81.82
2022-09-14T18:46:52.715Z,81.70
2022-09-14T18:49:21.600Z,82.25
2022-09-14T18:51:50.386Z,81.42
2022-09-14T18:54:20.213Z,80.72
2022-09-14T18:56:52.444Z,80.36
2022-09-14T18:59:20.960Z,80.83
2022-09-14T19:01:49.802Z,81.02
2022-09-14T19:04:18.381Z,81.73
2022-09-14T19:06:46.860Z,81.44
2022-09-14T19:09:20.311Z,80.69
2022-09-14T19:11:48.934Z,80.98
2022-09-14T19:14:23.070Z,80.30
2022-09-14T19:16:57.418Z,79.85
2022-09-14T19:19:26.766Z,81.85
2022-09-14T19:21:55.514Z,81.10
2022-09-14T19:24:24.219Z,80.80
2022-09-14T19:26:53.342Z,80.58
2022-09-14T19:29:26.612Z,80.33
2022-09-14T19:31:55.207Z,79.24
2022-09-14T19:34:25.658Z,79.86
2022-09-14T19:36:54.909Z,79.71
2022-09-14T19:39:24.401Z,80.03
2022-09-14T19:41:53.505Z,79.94
2022-09-14T19:44:23.917Z,80.32
2022-09-14T19:46:53.115Z,82.07
2022-09-14T19:49:23.875Z,82.71
2022-09-14T19:51:53.006Z,83.22
2022-09-14T19:54:21.704Z,83.26
2022-09-14T19:56:50.655Z,83.16
2022-09-14T19:59:18.990Z,82.21
2022-09-14T20:01:50.013Z,81.75
2022-09-14T20:04:19.453Z,82.24
2022-09-14T20:06:48.894Z,82.04
2022-09-14T20:09:20.177Z,81.48
2022-09-14T20:11:52.565Z,80.97
2022-09-14T20:14:22.646Z,82.67
2022-09-14T20:16:54.197Z,82.28
2022-09-14T20:19:24.659Z,82.91
2022-09-14T20:21:54.778Z,83.87
2022-09-14T20:24:25.947Z,83.83
2022-09-14T20:26:57.350Z,83.92
2022-09-14T20:29:28.537Z,83.81
2022-09-14T20:31:58.478Z,82.53
2022-09-14T20:34:26.806Z,81.68
2022-09-14T20:36:55.500Z,82.63
2022-09-14T20:39:25.874Z,83.34
2022-09-14T20:41:54.505Z,82.80
2022-09-14T20:44:23.381Z,82.27
2022-09-14T20:46:52.406Z,82.08
2022-09-14T20:49:23.917Z,82.00
2022-09-14T20:51:54.444Z,82.36
2022-09-14T20:54:23.069Z,80.94
2022-09-14T20:56:51.166Z,80.75
2022-09-14T20:59:22.242Z,80.42
2022-09-14T21:01:52.666Z,79.84
2022-09-14T21:04:23.948Z,82.59
2022-09-14T21:06:57.583Z,82.53
2022-09-14T21:09:27.400Z,81.63
2022-09-14T21:11:55.738Z,81.88
2022-09-14T21:14:24.191Z,81.46
2022-09-14T21:16:55.474Z,82.08
2022-09-14T21:19:27.148Z,81.07
2022-09-14T21:21:55.851Z,81.34
2022-09-14T21:24:24.714Z,82.06
2022-09-14T21:26:52.797Z,82.54
2022-09-14T21:29:23.895Z,82.40
2022-09-14T21:31:52.564Z,81.97
2022-09-14T21:34:24.486Z,81.16
2022-09-14T21:36:53.526Z,82.62
2022-09-14T21:39:24.130Z,82.49
2022-09-14T21:41:58.415Z,81.92
2022-09-14T21:44:31.997Z,83.21
2022-09-14T21:47:00.163Z,82.80
2022-09-14T21:49:30.211Z,83.50
2022-09-14T21:51:58.389Z,82.47
2022-09-14T21:54:26.762Z,83.34
2022-09-14T21:56:55.284Z,82.67
2022-09-14T21:59:24.370Z,83.20
2022-09-14T22:01:52.805Z,82.47
2022-09-14T22:04:22.962Z,83.35
2022-09-14T22:06:53.348Z,82.42
2022-09-14T22:09:26.251Z,83.63
2022-09-14T22:11:58.025Z,83.72
2022-09-14T22:14:28.626Z,83.31
2022-09-14T22:16:57.339Z,82.70
2022-09-14T22:19:26.922Z,82.37
2022-09-14T22:21:56.952Z,82.83
2022-09-14T22:24:26.728Z,83.80
2022-09-14T22:26:56.145Z,82.70
2022-09-14T22:29:25.079Z,83.06
2022-09-14T22:31:54.444Z,83.18
2022-09-14T22:34:24.525Z,83.34
2022-09-14T22:36:52.581Z,84.39
2022-09-14T22:39:23.282Z,83.62
2022-09-14T22:41:51.377Z,82.61
2022-09-14T22:44:19.436Z,83.81
2022-09-14T22:46:49.507Z,83.25
2022-09-14T22:49:19.570Z,83.76
2022-09-14T22:51:47.778Z,84.68
2022-09-14T22:54:15.849Z,84.36
2022-09-14T22:56:45.379Z,83.70
2022-09-14T22:59:13.418Z,81.08
2022-09-14T23:01:42.698Z,81.05
2022-09-14T23:04:12.940Z,80.88
2022-09-14T23:06:43.404Z,80.99
2022-09-14T23:09:13.468Z,81.21
2022-09-14T23:11:42.311Z,81.32
2022-09-14T23:14:12.854Z,81.34
2022-09-14T23:16:41.182Z,81.69
2022-09-14T23:19:09.387Z,81.92
2022-09-14T23:21:37.511Z,82.37
2022-09-14T23:24:07.741Z,82.50
2022-09-14T23:26:35.890Z,82.69
2022-09-14T23:29:05.941Z,82.92
2022-09-14T23:31:35.505Z,82.97
2022-09-14T23:34:05.391Z,83.22
2022-09-14T23:36:33.921Z,83.89
2022-09-14T23:39:01.974Z,84.02
2022-09-14T23:41:31.653Z,84.12
2022-09-14T23:43:59.746Z,83.92
2022-09-14T23:46:28.044Z,84.25
2022-09-14T23:48:57.502Z,85.80
2022-09-14T23:51:26.647Z,86.79
2022-09-14T23:53:57.888Z,87.41
2022-09-14T23:56:25.977Z,88.45
2022-09-14T23:58:54.014Z,88.65
